sensor_id;sensor_type;location;lat;lon;timestamp;P1;durP1;ratioP1;P2;durP2;ratioP2
24411;SDS011;12544;46.760;15.942;2023-05-08T00:00:34;9.15;;;8.35;;
24411;SDS011;12544;46.760;15.942;2023-05-08T00:03:00;10.30;;;8.25;;
24411;SDS011;12544;46.760;15.942;2023-05-08T00:05:25;8.80;;;8.00;;
24411;SDS011;12544;46.760;15.942;2023-05-08T00:07:51;10.05;;;8.38;;
24411;SDS011;12544;46.760;15.942;2023-05-08T00:10:17;9.10;;;8.25;;
24411;SDS011;12544;46.760;15.942;2023-05-08T00:12:43;11.90;;;8.43;;
24411;SDS011;12544;46.760;15.942;2023-05-08T00:15:09;10.00;;;8.55;;
24411;SDS011;12544;46.760;15.942;2023-05-08T00:17:35;9.75;;;8.70;;
24411;SDS011;12544;46.760;15.942;2023-05-08T00:20:01;9.10;;;8.25;;
24411;SDS011;12544;46.760;15.942;2023-05-08T00:22:27;10.88;;;8.00;;
24411;SDS011;12544;46.760;15.942;2023-05-08T00:24:53;9.57;;;8.68;;
24411;SDS011;12544;46.760;15.942;2023-05-08T00:27:20;11.35;;;9.52;;
24411;SDS011;12544;46.760;15.942;2023-05-08T00:29:47;10.00;;;9.10;;
24411;SDS011;12544;46.760;15.942;2023-05-08T00:32:14;11.68;;;9.40;;
24411;SDS011;12544;46.760;15.942;2023-05-08T00:34:40;12.45;;;9.65;;
24411;SDS011;12544;46.760;15.942;2023-05-08T00:37:05;10.80;;;9.75;;
24411;SDS011;12544;46.760;15.942;2023-05-08T00:39:31;11.90;;;10.43;;
24411;SDS011;12544;46.760;15.942;2023-05-08T00:41:57;10.88;;;9.27;;
24411;SDS011;12544;46.760;15.942;2023-05-08T00:44:22;13.05;;;11.38;;
24411;SDS011;12544;46.760;15.942;2023-05-08T00:46:48;13.50;;;11.35;;
24411;SDS011;12544;46.760;15.942;2023-05-08T00:49:14;12.07;;;10.38;;
24411;SDS011;12544;46.760;15.942;2023-05-08T00:55:02;12.27;;;11.07;;
24411;SDS011;12544;46.760;15.942;2023-05-08T00:57:30;12.43;;;10.73;;
24411;SDS011;12544;46.760;15.942;2023-05-08T00:59:58;12.70;;;11.50;;
24411;SDS011;12544;46.760;15.942;2023-05-08T01:02:26;13.40;;;12.00;;
24411;SDS011;12544;46.760;15.942;2023-05-08T01:04:52;14.98;;;13.20;;
24411;SDS011;12544;46.760;15.942;2023-05-08T01:07:18;15.40;;;13.80;;
24411;SDS011;12544;46.760;15.942;2023-05-08T01:09:45;15.45;;;11.77;;
24411;SDS011;12544;46.760;15.942;2023-05-08T01:23:53;17.10;;;13.00;;
24411;SDS011;12544;46.760;15.942;2023-05-08T01:32:35;18.25;;;14.65;;
24411;SDS011;12544;46.760;15.942;2023-05-08T01:41:15;22.27;;;14.55;;
24411;SDS011;12544;46.760;15.942;2023-05-08T01:46:12;15.88;;;12.80;;
24411;SDS011;12544;46.760;15.942;2023-05-08T01:48:46;19.90;;;14.90;;
24411;SDS011;12544;46.760;15.942;2023-05-08T01:51:32;18.00;;;15.35;;
24411;SDS011;12544;46.760;15.942;2023-05-08T01:54:07;16.35;;;14.15;;
24411;SDS011;12544;46.760;15.942;2023-05-08T01:56:35;16.30;;;13.98;;
24411;SDS011;12544;46.760;15.942;2023-05-08T01:59:03;18.13;;;15.48;;
24411;SDS011;12544;46.760;15.942;2023-05-08T02:01:30;15.38;;;13.75;;
24411;SDS011;12544;46.760;15.942;2023-05-08T02:03:58;20.05;;;15.38;;
24411;SDS011;12544;46.760;15.942;2023-05-08T02:06:25;17.90;;;15.90;;
24411;SDS011;12544;46.760;15.942;2023-05-08T02:08:52;18.58;;;15.40;;
24411;SDS011;12544;46.760;15.942;2023-05-08T02:11:20;20.40;;;16.50;;
24411;SDS011;12544;46.760;15.942;2023-05-08T02:13:49;21.15;;;15.95;;
24411;SDS011;12544;46.760;15.942;2023-05-08T02:16:16;23.02;;;17.77;;
24411;SDS011;12544;46.760;15.942;2023-05-08T02:18:48;17.55;;;15.40;;
24411;SDS011;12544;46.760;15.942;2023-05-08T02:21:16;20.05;;;16.02;;
24411;SDS011;12544;46.760;15.942;2023-05-08T02:23:44;18.83;;;16.73;;
24411;SDS011;12544;46.760;15.942;2023-05-08T02:26:20;24.00;;;16.95;;
24411;SDS011;12544;46.760;15.942;2023-05-08T02:28:47;23.33;;;16.75;;
24411;SDS011;12544;46.760;15.942;2023-05-08T02:31:14;20.42;;;16.77;;
24411;SDS011;12544;46.760;15.942;2023-05-08T02:33:42;22.88;;;16.83;;
24411;SDS011;12544;46.760;15.942;2023-05-08T02:36:09;19.10;;;16.60;;
24411;SDS011;12544;46.760;15.942;2023-05-08T02:38:38;22.05;;;17.70;;
24411;SDS011;12544;46.760;15.942;2023-05-08T02:41:08;26.27;;;16.40;;
24411;SDS011;12544;46.760;15.942;2023-05-08T02:43:36;21.23;;;16.75;;
24411;SDS011;12544;46.760;15.942;2023-05-08T02:48:36;25.45;;;17.70;;
24411;SDS011;12544;46.760;15.942;2023-05-08T02:51:09;22.52;;;16.52;;
24411;SDS011;12544;46.760;15.942;2023-05-08T02:53:57;20.27;;;15.70;;
24411;SDS011;12544;46.760;15.942;2023-05-08T02:56:38;22.67;;;17.80;;
24411;SDS011;12544;46.760;15.942;2023-05-08T02:59:15;19.02;;;16.48;;
24411;SDS011;12544;46.760;15.942;2023-05-08T03:01:50;21.98;;;16.92;;
24411;SDS011;12544;46.760;15.942;2023-05-08T03:04:27;19.10;;;15.55;;
24411;SDS011;12544;46.760;15.942;2023-05-08T03:07:06;22.98;;;16.48;;
24411;SDS011;12544;46.760;15.942;2023-05-08T03:09:53;19.40;;;15.40;;
24411;SDS011;12544;46.760;15.942;2023-05-08T03:12:25;18.60;;;15.68;;
24411;SDS011;12544;46.760;15.942;2023-05-08T03:14:59;16.95;;;14.82;;
24411;SDS011;12544;46.760;15.942;2023-05-08T03:17:31;18.55;;;15.10;;
24411;SDS011;12544;46.760;15.942;2023-05-08T03:19:59;17.52;;;14.80;;
24411;SDS011;12544;46.760;15.942;2023-05-08T03:22:29;16.90;;;14.30;;
24411;SDS011;12544;46.760;15.942;2023-05-08T03:24:58;21.58;;;15.98;;
24411;SDS011;12544;46.760;15.942;2023-05-08T03:27:27;19.88;;;16.17;;
24411;SDS011;12544;46.760;15.942;2023-05-08T03:29:54;17.48;;;14.82;;
24411;SDS011;12544;46.760;15.942;2023-05-08T03:32:23;16.73;;;14.30;;
24411;SDS011;12544;46.760;15.942;2023-05-08T03:34:50;16.15;;;14.45;;
24411;SDS011;12544;46.760;15.942;2023-05-08T03:37:18;18.65;;;15.88;;
24411;SDS011;12544;46.760;15.942;2023-05-08T03:39:44;16.77;;;14.40;;
24411;SDS011;12544;46.760;15.942;2023-05-08T03:42:09;16.73;;;14.60;;
24411;SDS011;12544;46.760;15.942;2023-05-08T03:44:45;17.17;;;14.85;;
24411;SDS011;12544;46.760;15.942;2023-05-08T03:47:12;22.38;;;14.60;;
24411;SDS011;12544;46.760;15.942;2023-05-08T03:49:38;16.55;;;14.43;;
24411;SDS011;12544;46.760;15.942;2023-05-08T03:54:35;18.63;;;14.90;;
24411;SDS011;12544;46.760;15.942;2023-05-08T03:57:01;15.52;;;13.93;;
24411;SDS011;12544;46.760;15.942;2023-05-08T04:02:18;14.85;;;13.32;;
24411;SDS011;12544;46.760;15.942;2023-05-08T04:04:54;18.67;;;14.45;;
24411;SDS011;12544;46.760;15.942;2023-05-08T04:07:36;18.63;;;14.55;;
24411;SDS011;12544;46.760;15.942;2023-05-08T04:15:20;14.57;;;13.43;;
24411;SDS011;12544;46.760;15.942;2023-05-08T04:17:49;15.18;;;13.30;;
24411;SDS011;12544;46.760;15.942;2023-05-08T04:20:22;14.40;;;12.93;;
24411;SDS011;12544;46.760;15.942;2023-05-08T04:22:51;15.60;;;14.00;;
24411;SDS011;12544;46.760;15.942;2023-05-08T04:25:18;14.93;;;13.43;;
24411;SDS011;12544;46.760;15.942;2023-05-08T04:27:45;15.27;;;12.93;;
24411;SDS011;12544;46.760;15.942;2023-05-08T04:30:12;16.02;;;13.90;;
24411;SDS011;12544;46.760;15.942;2023-05-08T04:32:39;15.80;;;13.52;;
24411;SDS011;12544;46.760;15.942;2023-05-08T04:35:05;19.70;;;14.75;;
24411;SDS011;12544;46.760;15.942;2023-05-08T04:37:31;15.77;;;14.00;;
24411;SDS011;12544;46.760;15.942;2023-05-08T04:39:58;16.08;;;12.60;;
24411;SDS011;12544;46.760;15.942;2023-05-08T04:42:24;14.88;;;13.38;;
24411;SDS011;12544;46.760;15.942;2023-05-08T04:44:50;15.75;;;12.95;;
24411;SDS011;12544;46.760;15.942;2023-05-08T04:47:16;15.38;;;13.43;;
24411;SDS011;12544;46.760;15.942;2023-05-08T04:49:42;16.25;;;14.50;;
24411;SDS011;12544;46.760;15.942;2023-05-08T04:52:08;17.73;;;12.27;;
24411;SDS011;12544;46.760;15.942;2023-05-08T04:54:34;15.63;;;13.30;;
24411;SDS011;12544;46.760;15.942;2023-05-08T04:56:59;17.90;;;13.95;;
24411;SDS011;12544;46.760;15.942;2023-05-08T04:59:25;15.20;;;13.63;;
24411;SDS011;12544;46.760;15.942;2023-05-08T05:01:51;15.05;;;13.20;;
24411;SDS011;12544;46.760;15.942;2023-05-08T05:04:17;15.25;;;13.65;;
24411;SDS011;12544;46.760;15.942;2023-05-08T05:06:43;15.73;;;12.80;;
24411;SDS011;12544;46.760;15.942;2023-05-08T05:09:08;14.18;;;12.68;;
24411;SDS011;12544;46.760;15.942;2023-05-08T05:11:35;15.13;;;13.23;;
24411;SDS011;12544;46.760;15.942;2023-05-08T05:14:01;13.63;;;11.95;;
24411;SDS011;12544;46.760;15.942;2023-05-08T05:16:26;13.95;;;12.60;;
24411;SDS011;12544;46.760;15.942;2023-05-08T05:18:52;18.52;;;14.45;;
24411;SDS011;12544;46.760;15.942;2023-05-08T05:21:27;15.00;;;13.40;;
24411;SDS011;12544;46.760;15.942;2023-05-08T05:23:53;13.38;;;12.02;;
24411;SDS011;12544;46.760;15.942;2023-05-08T05:26:18;14.43;;;12.93;;
24411;SDS011;12544;46.760;15.942;2023-05-08T05:28:45;15.10;;;13.50;;
24411;SDS011;12544;46.760;15.942;2023-05-08T05:31:12;14.00;;;12.60;;
24411;SDS011;12544;46.760;15.942;2023-05-08T05:33:38;14.63;;;13.13;;
24411;SDS011;12544;46.760;15.942;2023-05-08T05:36:03;16.50;;;13.23;;
24411;SDS011;12544;46.760;15.942;2023-05-08T05:38:31;15.23;;;13.63;;
24411;SDS011;12544;46.760;15.942;2023-05-08T05:40:57;15.23;;;13.63;;
24411;SDS011;12544;46.760;15.942;2023-05-08T05:43:22;16.98;;;13.98;;
24411;SDS011;12544;46.760;15.942;2023-05-08T05:45:48;16.52;;;14.10;;
24411;SDS011;12544;46.760;15.942;2023-05-08T05:48:14;14.35;;;12.77;;
24411;SDS011;12544;46.760;15.942;2023-05-08T05:50:39;17.00;;;14.40;;
24411;SDS011;12544;46.760;15.942;2023-05-08T05:53:05;18.67;;;14.20;;
24411;SDS011;12544;46.760;15.942;2023-05-08T05:55:30;15.65;;;13.43;;
24411;SDS011;12544;46.760;15.942;2023-05-08T05:57:56;19.88;;;14.82;;
24411;SDS011;12544;46.760;15.942;2023-05-08T06:00:22;16.55;;;14.55;;
24411;SDS011;12544;46.760;15.942;2023-05-08T06:02:47;20.88;;;15.65;;
24411;SDS011;12544;46.760;15.942;2023-05-08T06:05:13;15.90;;;14.23;;
24411;SDS011;12544;46.760;15.942;2023-05-08T06:07:39;17.75;;;14.90;;
24411;SDS011;12544;46.760;15.942;2023-05-08T06:10:04;17.67;;;14.88;;
24411;SDS011;12544;46.760;15.942;2023-05-08T06:12:31;17.25;;;15.35;;
24411;SDS011;12544;46.760;15.942;2023-05-08T06:14:56;17.33;;;15.18;;
24411;SDS011;12544;46.760;15.942;2023-05-08T06:17:22;17.55;;;14.65;;
24411;SDS011;12544;46.760;15.942;2023-05-08T06:19:47;16.92;;;15.10;;
24411;SDS011;12544;46.760;15.942;2023-05-08T06:22:17;17.02;;;15.02;;
24411;SDS011;12544;46.760;15.942;2023-05-08T06:24:44;16.55;;;14.68;;
24411;SDS011;12544;46.760;15.942;2023-05-08T06:27:10;19.95;;;16.02;;
24411;SDS011;12544;46.760;15.942;2023-05-08T06:29:35;17.40;;;14.95;;
24411;SDS011;12544;46.760;15.942;2023-05-08T06:32:01;18.17;;;15.50;;
24411;SDS011;12544;46.760;15.942;2023-05-08T06:34:27;16.48;;;14.77;;
24411;SDS011;12544;46.760;15.942;2023-05-08T06:36:52;17.77;;;14.07;;
24411;SDS011;12544;46.760;15.942;2023-05-08T06:39:18;20.80;;;15.45;;
24411;SDS011;12544;46.760;15.942;2023-05-08T06:41:47;17.02;;;13.82;;
24411;SDS011;12544;46.760;15.942;2023-05-08T06:44:13;19.92;;;16.25;;
24411;SDS011;12544;46.760;15.942;2023-05-08T06:46:39;18.35;;;16.45;;
24411;SDS011;12544;46.760;15.942;2023-05-08T06:49:05;16.83;;;13.82;;
24411;SDS011;12544;46.760;15.942;2023-05-08T06:51:30;14.90;;;13.38;;
24411;SDS011;12544;46.760;15.942;2023-05-08T06:53:56;19.38;;;14.57;;
24411;SDS011;12544;46.760;15.942;2023-05-08T06:56:22;17.85;;;15.88;;
24411;SDS011;12544;46.760;15.942;2023-05-08T06:58:48;17.65;;;14.93;;
24411;SDS011;12544;46.760;15.942;2023-05-08T07:01:14;18.10;;;15.48;;
24411;SDS011;12544;46.760;15.942;2023-05-08T07:03:40;17.48;;;14.30;;
24411;SDS011;12544;46.760;15.942;2023-05-08T07:06:06;16.63;;;14.43;;
24411;SDS011;12544;46.760;15.942;2023-05-08T07:08:33;17.55;;;15.15;;
24411;SDS011;12544;46.760;15.942;2023-05-08T07:10:59;16.33;;;14.13;;
24411;SDS011;12544;46.760;15.942;2023-05-08T07:13:24;16.92;;;14.98;;
24411;SDS011;12544;46.760;15.942;2023-05-08T07:15:50;17.20;;;15.32;;
24411;SDS011;12544;46.760;15.942;2023-05-08T07:18:16;16.55;;;14.85;;
24411;SDS011;12544;46.760;15.942;2023-05-08T07:20:41;17.00;;;15.25;;
24411;SDS011;12544;46.760;15.942;2023-05-08T07:23:07;18.50;;;14.55;;
24411;SDS011;12544;46.760;15.942;2023-05-08T07:25:33;19.08;;;16.30;;
24411;SDS011;12544;46.760;15.942;2023-05-08T07:27:59;17.40;;;14.63;;
24411;SDS011;12544;46.760;15.942;2023-05-08T07:30:25;19.17;;;16.35;;
24411;SDS011;12544;46.760;15.942;2023-05-08T07:32:50;17.23;;;15.07;;
24411;SDS011;12544;46.760;15.942;2023-05-08T07:35:16;18.40;;;16.27;;
24411;SDS011;12544;46.760;15.942;2023-05-08T07:37:42;17.92;;;16.05;;
24411;SDS011;12544;46.760;15.942;2023-05-08T07:40:07;17.45;;;15.30;;
24411;SDS011;12544;46.760;15.942;2023-05-08T07:42:37;18.92;;;16.73;;
24411;SDS011;12544;46.760;15.942;2023-05-08T07:45:12;16.67;;;14.93;;
24411;SDS011;12544;46.760;15.942;2023-05-08T07:47:38;18.20;;;16.30;;
24411;SDS011;12544;46.760;15.942;2023-05-08T07:50:13;18.38;;;15.82;;
24411;SDS011;12544;46.760;15.942;2023-05-08T07:52:39;18.38;;;16.33;;
24411;SDS011;12544;46.760;15.942;2023-05-08T07:55:13;17.77;;;15.52;;
24411;SDS011;12544;46.760;15.942;2023-05-08T07:57:40;18.95;;;15.50;;
24411;SDS011;12544;46.760;15.942;2023-05-08T08:00:07;21.30;;;16.95;;
24411;SDS011;12544;46.760;15.942;2023-05-08T08:02:34;19.05;;;16.23;;
24411;SDS011;12544;46.760;15.942;2023-05-08T08:05:00;20.15;;;16.70;;
24411;SDS011;12544;46.760;15.942;2023-05-08T08:07:25;18.02;;;15.70;;
24411;SDS011;12544;46.760;15.942;2023-05-08T08:09:51;20.20;;;16.35;;
24411;SDS011;12544;46.760;15.942;2023-05-08T08:12:17;21.65;;;16.88;;
24411;SDS011;12544;46.760;15.942;2023-05-08T08:14:42;23.15;;;17.35;;
24411;SDS011;12544;46.760;15.942;2023-05-08T08:17:08;18.52;;;16.63;;
24411;SDS011;12544;46.760;15.942;2023-05-08T08:19:34;18.23;;;15.45;;
24411;SDS011;12544;46.760;15.942;2023-05-08T08:22:04;19.38;;;16.90;;
24411;SDS011;12544;46.760;15.942;2023-05-08T08:24:30;23.58;;;15.93;;
24411;SDS011;12544;46.760;15.942;2023-05-08T08:26:56;18.38;;;16.45;;
24411;SDS011;12544;46.760;15.942;2023-05-08T08:29:21;22.50;;;15.85;;
24411;SDS011;12544;46.760;15.942;2023-05-08T08:31:47;18.45;;;16.50;;
24411;SDS011;12544;46.760;15.942;2023-05-08T08:36:44;21.17;;;16.58;;
24411;SDS011;12544;46.760;15.942;2023-05-08T08:39:10;21.92;;;17.35;;
24411;SDS011;12544;46.760;15.942;2023-05-08T08:41:36;19.92;;;16.30;;
24411;SDS011;12544;46.760;15.942;2023-05-08T08:44:03;23.60;;;17.20;;
24411;SDS011;12544;46.760;15.942;2023-05-08T08:46:29;25.60;;;17.75;;
24411;SDS011;12544;46.760;15.942;2023-05-08T08:48:58;18.60;;;15.13;;
24411;SDS011;12544;46.760;15.942;2023-05-08T08:51:31;18.05;;;16.17;;
24411;SDS011;12544;46.760;15.942;2023-05-08T08:56:38;22.13;;;17.92;;
24411;SDS011;12544;46.760;15.942;2023-05-08T08:59:08;18.77;;;16.42;;
24411;SDS011;12544;46.760;15.942;2023-05-08T09:01:37;18.75;;;16.40;;
24411;SDS011;12544;46.760;15.942;2023-05-08T09:04:04;20.00;;;16.08;;
24411;SDS011;12544;46.760;15.942;2023-05-08T09:06:33;15.85;;;14.15;;
24411;SDS011;12544;46.760;15.942;2023-05-08T09:09:02;16.58;;;14.88;;
24411;SDS011;12544;46.760;15.942;2023-05-08T09:11:29;18.70;;;15.57;;
24411;SDS011;12544;46.760;15.942;2023-05-08T09:13:55;26.90;;;17.83;;
24411;SDS011;12544;46.760;15.942;2023-05-08T09:16:21;18.85;;;15.90;;
24411;SDS011;12544;46.760;15.942;2023-05-08T09:18:47;18.90;;;15.85;;
24411;SDS011;12544;46.760;15.942;2023-05-08T09:21:18;17.83;;;15.95;;
24411;SDS011;12544;46.760;15.942;2023-05-08T09:23:53;17.63;;;15.73;;
24411;SDS011;12544;46.760;15.942;2023-05-08T09:26:26;18.92;;;16.27;;
24411;SDS011;12544;46.760;15.942;2023-05-08T09:29:18;20.10;;;16.02;;
24411;SDS011;12544;46.760;15.942;2023-05-08T09:31:49;14.98;;;12.82;;
24411;SDS011;12544;46.760;15.942;2023-05-08T09:34:28;16.50;;;14.90;;
24411;SDS011;12544;46.760;15.942;2023-05-08T09:39:31;16.60;;;14.80;;
24411;SDS011;12544;46.760;15.942;2023-05-08T09:42:01;17.30;;;14.85;;
24411;SDS011;12544;46.760;15.942;2023-05-08T09:44:40;18.30;;;16.05;;
24411;SDS011;12544;46.760;15.942;2023-05-08T09:47:09;13.30;;;12.00;;
24411;SDS011;12544;46.760;15.942;2023-05-08T09:49:36;12.93;;;11.65;;
24411;SDS011;12544;46.760;15.942;2023-05-08T09:52:04;15.18;;;12.35;;
24411;SDS011;12544;46.760;15.942;2023-05-08T09:54:39;15.30;;;13.75;;
24411;SDS011;12544;46.760;15.942;2023-05-08T09:57:11;14.15;;;12.80;;
24411;SDS011;12544;46.760;15.942;2023-05-08T09:59:37;13.82;;;12.43;;
24411;SDS011;12544;46.760;15.942;2023-05-08T10:02:08;14.65;;;12.75;;
24411;SDS011;12544;46.760;15.942;2023-05-08T10:04:35;13.82;;;12.40;;
24411;SDS011;12544;46.760;15.942;2023-05-08T10:07:02;15.18;;;13.13;;
24411;SDS011;12544;46.760;15.942;2023-05-08T10:09:33;15.70;;;14.07;;
24411;SDS011;12544;46.760;15.942;2023-05-08T10:11:59;14.50;;;13.00;;
24411;SDS011;12544;46.760;15.942;2023-05-08T10:14:24;15.38;;;13.82;;
24411;SDS011;12544;46.760;15.942;2023-05-08T10:16:50;17.48;;;15.77;;
24411;SDS011;12544;46.760;15.942;2023-05-08T10:19:18;17.98;;;14.02;;
24411;SDS011;12544;46.760;15.942;2023-05-08T10:21:48;15.57;;;13.52;;
24411;SDS011;12544;46.760;15.942;2023-05-08T10:24:31;16.58;;;13.25;;
24411;SDS011;12544;46.760;15.942;2023-05-08T10:32:37;15.98;;;14.25;;
24411;SDS011;12544;46.760;15.942;2023-05-08T10:35:07;17.97;;;15.57;;
24411;SDS011;12544;46.760;15.942;2023-05-08T10:37:35;16.50;;;14.70;;
24411;SDS011;12544;46.760;15.942;2023-05-08T10:40:02;18.85;;;16.02;;
24411;SDS011;12544;46.760;15.942;2023-05-08T10:42:30;16.30;;;14.60;;
24411;SDS011;12544;46.760;15.942;2023-05-08T10:44:59;16.63;;;14.70;;
24411;SDS011;12544;46.760;15.942;2023-05-08T10:47:29;17.52;;;15.65;;
24411;SDS011;12544;46.760;15.942;2023-05-08T10:55:22;14.05;;;12.65;;
24411;SDS011;12544;46.760;15.942;2023-05-08T11:03:14;14.43;;;13.02;;
24411;SDS011;12544;46.760;15.942;2023-05-08T11:05:45;15.52;;;13.73;;
24411;SDS011;12544;46.760;15.942;2023-05-08T11:08:16;14.85;;;13.55;;
24411;SDS011;12544;46.760;15.942;2023-05-08T11:10:51;15.32;;;13.82;;
24411;SDS011;12544;46.760;15.942;2023-05-08T11:13:43;15.93;;;14.32;;
24411;SDS011;12544;46.760;15.942;2023-05-08T11:16:16;14.90;;;13.43;;
24411;SDS011;12544;46.760;15.942;2023-05-08T11:24:38;16.73;;;13.13;;
24411;SDS011;12544;46.760;15.942;2023-05-08T11:27:05;14.52;;;13.10;;
24411;SDS011;12544;46.760;15.942;2023-05-08T11:29:31;14.63;;;13.32;;
24411;SDS011;12544;46.760;15.942;2023-05-08T11:32:00;17.88;;;13.90;;
24411;SDS011;12544;46.760;15.942;2023-05-08T11:37:17;14.10;;;12.70;;
24411;SDS011;12544;46.760;15.942;2023-05-08T11:39:44;16.15;;;14.52;;
24411;SDS011;12544;46.760;15.942;2023-05-08T11:44:49;17.13;;;15.38;;
24411;SDS011;12544;46.760;15.942;2023-05-08T11:47:31;14.93;;;13.50;;
24411;SDS011;12544;46.760;15.942;2023-05-08T11:50:03;16.98;;;15.32;;
24411;SDS011;12544;46.760;15.942;2023-05-08T11:52:33;21.75;;;14.20;;
24411;SDS011;12544;46.760;15.942;2023-05-08T11:55:00;14.30;;;12.82;;
24411;SDS011;12544;46.760;15.942;2023-05-08T11:57:29;15.60;;;14.00;;
24411;SDS011;12544;46.760;15.942;2023-05-08T11:59:55;15.63;;;14.13;;
24411;SDS011;12544;46.760;15.942;2023-05-08T12:02:34;15.98;;;14.15;;
24411;SDS011;12544;46.760;15.942;2023-05-08T12:04:59;17.90;;;14.38;;
24411;SDS011;12544;46.760;15.942;2023-05-08T12:07:25;16.13;;;14.38;;
24411;SDS011;12544;46.760;15.942;2023-05-08T12:09:51;16.67;;;15.00;;
24411;SDS011;12544;46.760;15.942;2023-05-08T12:12:17;17.90;;;15.02;;
24411;SDS011;12544;46.760;15.942;2023-05-08T12:14:43;17.42;;;15.43;;
24411;SDS011;12544;46.760;15.942;2023-05-08T12:17:15;15.10;;;13.65;;
24411;SDS011;12544;46.760;15.942;2023-05-08T12:19:42;16.30;;;14.38;;
24411;SDS011;12544;46.760;15.942;2023-05-08T12:22:08;15.95;;;14.48;;
24411;SDS011;12544;46.760;15.942;2023-05-08T12:24:33;15.48;;;14.05;;
24411;SDS011;12544;46.760;15.942;2023-05-08T12:26:59;16.95;;;14.45;;
24411;SDS011;12544;46.760;15.942;2023-05-08T12:29:25;16.23;;;14.48;;
24411;SDS011;12544;46.760;15.942;2023-05-08T12:31:57;15.35;;;13.57;;
24411;SDS011;12544;46.760;15.942;2023-05-08T12:36:59;16.38;;;14.52;;
24411;SDS011;12544;46.760;15.942;2023-05-08T12:39:26;17.60;;;15.90;;
24411;SDS011;12544;46.760;15.942;2023-05-08T12:41:51;16.33;;;14.75;;
24411;SDS011;12544;46.760;15.942;2023-05-08T12:44:24;17.10;;;15.45;;
24411;SDS011;12544;46.760;15.942;2023-05-08T12:46:53;17.23;;;14.40;;
24411;SDS011;12544;46.760;15.942;2023-05-08T12:49:27;14.40;;;13.00;;
24411;SDS011;12544;46.760;15.942;2023-05-08T12:52:00;14.70;;;13.20;;
24411;SDS011;12544;46.760;15.942;2023-05-08T12:54:33;15.77;;;14.18;;
24411;SDS011;12544;46.760;15.942;2023-05-08T12:57:10;14.77;;;13.32;;
24411;SDS011;12544;46.760;15.942;2023-05-08T13:02:02;14.98;;;13.32;;
24411;SDS011;12544;46.760;15.942;2023-05-08T13:04:28;15.85;;;13.38;;
24411;SDS011;12544;46.760;15.942;2023-05-08T13:06:54;14.60;;;13.13;;
24411;SDS011;12544;46.760;15.942;2023-05-08T13:09:20;14.55;;;13.15;;
24411;SDS011;12544;46.760;15.942;2023-05-08T13:11:47;14.60;;;13.23;;
24411;SDS011;12544;46.760;15.942;2023-05-08T13:14:13;14.35;;;12.95;;
24411;SDS011;12544;46.760;15.942;2023-05-08T13:16:42;14.50;;;13.10;;
24411;SDS011;12544;46.760;15.942;2023-05-08T13:19:09;14.80;;;13.45;;
24411;SDS011;12544;46.760;15.942;2023-05-08T13:21:34;14.27;;;12.98;;
24411;SDS011;12544;46.760;15.942;2023-05-08T13:24:00;13.82;;;12.52;;
24411;SDS011;12544;46.760;15.942;2023-05-08T13:26:25;13.77;;;12.48;;
24411;SDS011;12544;46.760;15.942;2023-05-08T13:28:51;15.15;;;13.63;;
24411;SDS011;12544;46.760;15.942;2023-05-08T13:31:17;13.23;;;11.93;;
24411;SDS011;12544;46.760;15.942;2023-05-08T13:33:42;14.90;;;12.98;;
24411;SDS011;12544;46.760;15.942;2023-05-08T13:36:09;14.45;;;12.52;;
24411;SDS011;12544;46.760;15.942;2023-05-08T13:38:35;14.73;;;13.32;;
24411;SDS011;12544;46.760;15.942;2023-05-08T13:41:00;13.70;;;12.40;;
24411;SDS011;12544;46.760;15.942;2023-05-08T13:43:26;13.07;;;11.88;;
24411;SDS011;12544;46.760;15.942;2023-05-08T13:45:51;13.50;;;12.30;;
24411;SDS011;12544;46.760;15.942;2023-05-08T13:48:18;13.13;;;11.88;;
24411;SDS011;12544;46.760;15.942;2023-05-08T13:50:43;13.25;;;11.90;;
24411;SDS011;12544;46.760;15.942;2023-05-08T13:53:09;12.68;;;11.57;;
24411;SDS011;12544;46.760;15.942;2023-05-08T13:55:35;15.40;;;14.00;;
24411;SDS011;12544;46.760;15.942;2023-05-08T13:58:00;15.88;;;13.98;;
24411;SDS011;12544;46.760;15.942;2023-05-08T14:00:26;15.02;;;13.32;;
24411;SDS011;12544;46.760;15.942;2023-05-08T14:02:52;14.93;;;12.50;;
24411;SDS011;12544;46.760;15.942;2023-05-08T14:05:17;14.63;;;13.13;;
24411;SDS011;12544;46.760;15.942;2023-05-08T14:07:43;14.05;;;12.73;;
24411;SDS011;12544;46.760;15.942;2023-05-08T14:10:09;13.65;;;12.35;;
24411;SDS011;12544;46.760;15.942;2023-05-08T14:12:35;14.80;;;13.48;;
24411;SDS011;12544;46.760;15.942;2023-05-08T14:15:01;16.10;;;13.80;;
24411;SDS011;12544;46.760;15.942;2023-05-08T14:17:28;14.65;;;13.23;;
24411;SDS011;12544;46.760;15.942;2023-05-08T14:19:54;14.35;;;12.88;;
24411;SDS011;12544;46.760;15.942;2023-05-08T14:22:20;14.98;;;13.38;;
24411;SDS011;12544;46.760;15.942;2023-05-08T14:24:45;15.23;;;13.60;;
24411;SDS011;12544;46.760;15.942;2023-05-08T14:27:11;15.80;;;12.65;;
24411;SDS011;12544;46.760;15.942;2023-05-08T14:29:37;14.02;;;12.05;;
24411;SDS011;12544;46.760;15.942;2023-05-08T14:32:03;14.13;;;12.65;;
24411;SDS011;12544;46.760;15.942;2023-05-08T14:34:29;14.23;;;12.82;;
24411;SDS011;12544;46.760;15.942;2023-05-08T14:36:54;13.20;;;11.07;;
24411;SDS011;12544;46.760;15.942;2023-05-08T14:39:20;15.05;;;13.32;;
24411;SDS011;12544;46.760;15.942;2023-05-08T14:41:46;13.82;;;12.45;;
24411;SDS011;12544;46.760;15.942;2023-05-08T14:44:11;18.17;;;12.80;;
24411;SDS011;12544;46.760;15.942;2023-05-08T14:46:39;13.95;;;12.65;;
24411;SDS011;12544;46.760;15.942;2023-05-08T14:49:05;13.32;;;11.95;;
24411;SDS011;12544;46.760;15.942;2023-05-08T14:51:30;13.13;;;11.75;;
24411;SDS011;12544;46.760;15.942;2023-05-08T14:53:56;13.45;;;12.25;;
24411;SDS011;12544;46.760;15.942;2023-05-08T14:56:21;13.48;;;12.18;;
24411;SDS011;12544;46.760;15.942;2023-05-08T14:58:50;14.00;;;12.55;;
24411;SDS011;12544;46.760;15.942;2023-05-08T15:01:16;14.07;;;12.77;;
24411;SDS011;12544;46.760;15.942;2023-05-08T15:03:42;14.32;;;12.32;;
24411;SDS011;12544;46.760;15.942;2023-05-08T15:06:11;11.27;;;10.27;;
24411;SDS011;12544;46.760;15.942;2023-05-08T15:08:36;11.73;;;10.45;;
24411;SDS011;12544;46.760;15.942;2023-05-08T15:11:02;12.18;;;10.90;;
24411;SDS011;12544;46.760;15.942;2023-05-08T15:13:28;12.20;;;11.00;;
24411;SDS011;12544;46.760;15.942;2023-05-08T15:15:54;12.45;;;11.25;;
24411;SDS011;12544;46.760;15.942;2023-05-08T15:18:20;12.00;;;10.50;;
24411;SDS011;12544;46.760;15.942;2023-05-08T15:20:48;12.80;;;11.52;;
24411;SDS011;12544;46.760;15.942;2023-05-08T15:23:14;12.07;;;10.95;;
24411;SDS011;12544;46.760;15.942;2023-05-08T15:25:40;12.65;;;11.27;;
24411;SDS011;12544;46.760;15.942;2023-05-08T15:28:05;11.20;;;10.10;;
24411;SDS011;12544;46.760;15.942;2023-05-08T15:30:31;12.15;;;10.98;;
24411;SDS011;12544;46.760;15.942;2023-05-08T15:32:57;12.40;;;11.20;;
24411;SDS011;12544;46.760;15.942;2023-05-08T15:35:22;12.82;;;11.63;;